createdAt,value
2019-03-26T00:00:34.524Z,98690.36
2019-03-26T00:03:07.310Z,98694.83
2019-03-26T00:05:40.136Z,98700.71
2019-03-26T00:08:13.523Z,98703.31
2019-03-26T00:10:47.046Z,98715.52
2019-03-26T00:13:20.127Z,98717.56
2019-03-26T00:15:53.194Z,98720.16
2019-03-26T00:18:26.417Z,98722.50
2019-03-26T00:20:59.596Z,98720.59
2019-03-26T00:23:32.471Z,98720.14
2019-03-26T00:26:05.574Z,98713.42
2019-03-26T00:28:38.632Z,98720.39
2019-03-26T00:31:11.399Z,98719.34
2019-03-26T00:33:44.635Z,98723.14
2019-03-26T00:36:17.816Z,98731.48
2019-03-26T00:38:50.622Z,98728.97
2019-03-26T00:41:23.814Z,98731.55
2019-03-26T00:43:57.044Z,98732.09
2019-03-26T00:46:31.010Z,98741.36
2019-03-26T00:49:03.795Z,98742.05
2019-03-26T00:51:37.419Z,98743.06
2019-03-26T00:54:10.166Z,98752.35
2019-03-26T00:56:43.237Z,98758.51
2019-03-26T00:59:16.552Z,98765.79
2019-03-26T01:01:49.551Z,98773.08
2019-03-26T01:04:32.201Z,98774.26
2019-03-26T01:06:57.099Z,98773.09
2019-03-26T01:09:29.842Z,98773.13
2019-03-26T01:12:03.844Z,98774.19
2019-03-26T01:14:37.911Z,98786.22
2019-03-26T01:17:10.681Z,98791.30
2019-03-26T01:19:43.855Z,98791.28
2019-03-26T01:22:16.921Z,98787.65
2019-03-26T01:24:50.944Z,98782.78
2019-03-26T01:27:24.040Z,98783.97
2019-03-26T01:29:56.797Z,98772.77
2019-03-26T01:32:29.547Z,98769.45
2019-03-26T01:35:02.320Z,98758.48
2019-03-26T01:37:35.505Z,98758.62
2019-03-26T01:40:08.409Z,98767.08
2019-03-26T01:42:41.173Z,98756.97
2019-03-26T01:45:14.561Z,98745.59
2019-03-26T01:47:47.312Z,98750.10
2019-03-26T01:50:21.978Z,98757.92
2019-03-26T01:52:55.241Z,98769.05
2019-03-26T01:55:28.508Z,98767.45
2019-03-26T01:58:01.578Z,98772.02
2019-03-26T02:00:35.235Z,98762.77
2019-03-26T02:03:08.471Z,98767.28
2019-03-26T02:05:41.539Z,98771.36
2019-03-26T02:08:14.298Z,98771.89
2019-03-26T02:10:47.371Z,98769.82
2019-03-26T02:13:20.135Z,98778.45
2019-03-26T02:15:52.889Z,98782.69
2019-03-26T02:18:25.653Z,98789.96
2019-03-26T02:20:58.532Z,98792.30
2019-03-26T02:23:32.187Z,98794.65
2019-03-26T02:26:05.292Z,98801.32
2019-03-26T02:28:38.041Z,98803.30
2019-03-26T02:31:11.281Z,98809.23
2019-03-26T02:33:44.357Z,98804.05
2019-03-26T02:36:18.457Z,98797.52
2019-03-26T02:38:51.834Z,98799.38
2019-03-26T02:41:24.594Z,98803.31
2019-03-26T02:43:58.603Z,98792.70
2019-03-26T02:46:31.357Z,98787.96
2019-03-26T02:49:04.431Z,98789.05
2019-03-26T02:51:37.504Z,98794.11
2019-03-26T02:54:10.599Z,98792.62
2019-03-26T02:56:43.777Z,98798.91
2019-03-26T02:59:16.854Z,98799.53
2019-03-26T03:01:49.613Z,98801.90
2019-03-26T03:04:22.366Z,98802.50
2019-03-26T03:06:55.126Z,98806.30
2019-03-26T03:09:28.044Z,98796.44
2019-03-26T03:12:00.804Z,98801.94
2019-03-26T03:14:33.560Z,98801.85
2019-03-26T03:17:07.953Z,98801.33
2019-03-26T03:19:40.710Z,98808.02
2019-03-26T03:22:13.467Z,98818.19
2019-03-26T03:24:46.604Z,98822.75
2019-03-26T03:27:19.717Z,98822.88
2019-03-26T03:29:52.466Z,98825.25
2019-03-26T03:32:25.224Z,98825.44
2019-03-26T03:34:58.265Z,98823.73
2019-03-26T03:37:31.313Z,98831.11
2019-03-26T03:40:04.179Z,98833.48
2019-03-26T03:42:37.607Z,98832.86
2019-03-26T03:45:12.282Z,98837.91
2019-03-26T03:47:45.842Z,98846.05
2019-03-26T03:50:19.012Z,98843.84
2019-03-26T03:52:52.781Z,98852.77
2019-03-26T03:55:25.752Z,98859.80
2019-03-26T03:58:01.624Z,98853.20
2019-03-26T04:00:46.072Z,98855.85
2019-03-26T04:03:18.851Z,98856.23
2019-03-26T04:06:07.762Z,98866.08
2019-03-26T04:08:26.493Z,98865.41
2019-03-26T04:10:59.569Z,98871.62
2019-03-26T04:13:32.637Z,98867.59
2019-03-26T04:16:05.694Z,98868.41
2019-03-26T04:18:38.462Z,98864.42
2019-03-26T04:21:12.001Z,98864.92
2019-03-26T04:23:44.876Z,98865.53
2019-03-26T04:26:18.138Z,98875.58
2019-03-26T04:28:51.093Z,98876.14
2019-03-26T04:31:23.850Z,98872.75
2019-03-26T04:33:56.600Z,98874.84
2019-03-26T04:36:30.354Z,98877.44
2019-03-26T04:39:03.890Z,98879.33
2019-03-26T04:41:36.680Z,98885.06
2019-03-26T04:44:09.448Z,98881.63
2019-03-26T04:46:42.229Z,98881.31
2019-03-26T04:49:15.005Z,98878.63
2019-03-26T04:51:48.680Z,98880.64
2019-03-26T04:54:21.785Z,98890.34
2019-03-26T04:56:54.531Z,98895.19
2019-03-26T04:59:28.008Z,98903.19
2019-03-26T05:02:00.758Z,98898.63
2019-03-26T05:04:33.985Z,98898.81
2019-03-26T05:07:07.201Z,98903.39
2019-03-26T05:09:39.978Z,98903.80
2019-03-26T05:12:13.204Z,98904.77
2019-03-26T05:14:47.280Z,98907.49
2019-03-26T05:17:20.029Z,98915.02
2019-03-26T05:19:53.414Z,98909.69
2019-03-26T05:22:26.471Z,98909.91
2019-03-26T05:24:59.574Z,98917.25
2019-03-26T05:27:44.793Z,98912.67
2019-03-26T05:30:09.259Z,98917.36
2019-03-26T05:32:42.008Z,98920.22
2019-03-26T05:35:15.447Z,98915.59
2019-03-26T05:37:49.416Z,98914.70
2019-03-26T05:40:22.954Z,98916.77
2019-03-26T05:42:55.705Z,98920.86
2019-03-26T05:45:28.881Z,98925.84
2019-03-26T05:48:02.414Z,98926.56
2019-03-26T05:50:35.160Z,98926.98
2019-03-26T05:53:08.231Z,98929.11
2019-03-26T05:55:41.893Z,98933.98
2019-03-26T05:58:14.957Z,98930.38
2019-03-26T06:00:48.443Z,98933.52
2019-03-26T06:03:21.510Z,98929.59
2019-03-26T06:05:54.737Z,98933.13
2019-03-26T06:08:29.906Z,98934.37
2019-03-26T06:11:02.991Z,98940.30
2019-03-26T06:13:36.372Z,98947.52
2019-03-26T06:16:09.134Z,98948.95
2019-03-26T06:18:41.894Z,98950.16
2019-03-26T06:21:14.685Z,98950.01
2019-03-26T06:23:48.038Z,98954.02
2019-03-26T06:26:21.264Z,98952.80
2019-03-26T06:28:54.252Z,98945.50
2019-03-26T06:31:27.105Z,98940.67
2019-03-26T06:34:00.131Z,98934.87
2019-03-26T06:36:33.334Z,98943.77
2019-03-26T06:39:08.786Z,98943.89
2019-03-26T06:41:41.537Z,98941.20
2019-03-26T06:44:14.318Z,98934.71
2019-03-26T06:46:47.194Z,98938.98
2019-03-26T06:49:20.419Z,98947.47
2019-03-26T06:51:53.135Z,98951.27
2019-03-26T06:54:26.000Z,98957.79
2019-03-26T06:57:00.576Z,98959.93
2019-03-26T06:59:33.420Z,98956.97
2019-03-26T07:02:06.744Z,98959.75
2019-03-26T07:04:46.791Z,98963.83
2019-03-26T07:07:30.945Z,98969.98
2019-03-26T07:09:56.411Z,98966.52
2019-03-26T07:12:29.169Z,98971.37
2019-03-26T07:15:02.309Z,98974.89
2019-03-26T07:17:35.078Z,98980.37
2019-03-26T07:20:10.186Z,98981.88
2019-03-26T07:22:43.427Z,98989.48
2019-03-26T07:25:17.152Z,98984.92
2019-03-26T07:27:49.995Z,98987.41
2019-03-26T07:30:43.767Z,98985.82
2019-03-26T07:33:16.519Z,98986.42
2019-03-26T07:35:50.488Z,98991.98
2019-03-26T07:38:25.353Z,98992.82
2019-03-26T07:40:58.423Z,98994.73
2019-03-26T07:43:31.502Z,98992.27
2019-03-26T07:46:05.486Z,98994.63
2019-03-26T07:48:39.137Z,98996.97
2019-03-26T07:51:12.044Z,98995.42
2019-03-26T07:53:45.266Z,98998.38
2019-03-26T07:56:18.483Z,98999.16
2019-03-26T07:58:51.719Z,99000.89
2019-03-26T08:01:24.768Z,99008.69
2019-03-26T08:03:58.304Z,99003.17
2019-03-26T08:06:31.839Z,99008.04
2019-03-26T08:09:06.092Z,99009.91
2019-03-26T08:11:39.914Z,99012.41
2019-03-26T08:14:12.686Z,99015.72
2019-03-26T08:16:46.056Z,99008.42
2019-03-26T08:19:18.784Z,99006.42
2019-03-26T08:21:51.842Z,99008.63
2019-03-26T08:24:25.095Z,99002.09
2019-03-26T08:26:58.501Z,98995.56
2019-03-26T08:29:31.317Z,98992.58
2019-03-26T08:32:04.375Z,98981.56
2019-03-26T08:34:38.999Z,98977.31
2019-03-26T08:37:11.749Z,98974.83
2019-03-26T08:39:46.869Z,98969.66
2019-03-26T08:42:19.633Z,98979.14
2019-03-26T08:44:52.387Z,98981.48
2019-03-26T08:47:26.036Z,98983.21
2019-03-26T08:49:58.794Z,98988.11
2019-03-26T08:52:33.196Z,98989.76
2019-03-26T08:55:06.830Z,98993.26
2019-03-26T08:57:39.896Z,98987.00
2019-03-26T09:00:15.468Z,98992.63
2019-03-26T09:02:48.340Z,98995.83
2019-03-26T09:05:21.821Z,98994.73
2019-03-26T09:07:55.456Z,98997.36
2019-03-26T09:10:28.299Z,98994.13
2019-03-26T09:13:01.408Z,99002.19
2019-03-26T09:15:34.579Z,99003.55
2019-03-26T09:18:07.996Z,99001.74
2019-03-26T09:20:42.473Z,99004.98
2019-03-26T09:23:15.808Z,99012.67
2019-03-26T09:25:49.532Z,99011.42
2019-03-26T09:28:22.738Z,99005.70
2019-03-26T09:30:56.423Z,99008.09
2019-03-26T09:33:29.634Z,99014.29
2019-03-26T09:36:03.797Z,99007.61
2019-03-26T09:38:39.124Z,99019.98
2019-03-26T09:41:12.323Z,99013.00
2019-03-26T09:43:45.074Z,99017.00
2019-03-26T09:46:20.074Z,99012.50
2019-03-26T09:48:52.819Z,99009.84
2019-03-26T09:51:26.198Z,99012.55
2019-03-26T09:53:59.835Z,99011.59
2019-03-26T09:56:32.907Z,99013.52
2019-03-26T09:59:06.481Z,99020.58
2019-03-26T10:01:40.110Z,99014.76
2019-03-26T10:04:13.478Z,99013.80
2019-03-26T10:06:46.225Z,99010.04
2019-03-26T10:09:18.982Z,99012.42
2019-03-26T10:11:52.202Z,99026.00
2019-03-26T10:14:24.958Z,99026.22
2019-03-26T10:16:58.038Z,99027.39
2019-03-26T10:19:31.097Z,99017.77
2019-03-26T10:22:03.925Z,99014.42
2019-03-26T10:24:37.955Z,99023.49
2019-03-26T10:27:11.017Z,99023.28
2019-03-26T10:29:44.546Z,99030.33
2019-03-26T10:32:17.289Z,99025.00
2019-03-26T10:34:50.892Z,99029.34
2019-03-26T10:37:24.224Z,99017.81
2019-03-26T10:39:57.400Z,99017.59
2019-03-26T10:42:30.785Z,99014.58
2019-03-26T10:45:03.549Z,99002.66
2019-03-26T10:47:36.761Z,98994.37
2019-03-26T10:50:11.325Z,98985.98
2019-03-26T10:52:45.017Z,98983.20
2019-03-26T10:55:19.109Z,98977.44
2019-03-26T10:57:52.766Z,98980.30
2019-03-26T11:00:26.126Z,98973.71
2019-03-26T11:02:58.976Z,98981.95
2019-03-26T11:05:32.209Z,98985.53
2019-03-26T11:08:05.524Z,98977.81
2019-03-26T11:10:39.568Z,98976.97
2019-03-26T11:13:12.620Z,98980.14
2019-03-26T11:15:45.463Z,98976.00
2019-03-26T11:18:18.686Z,98977.84
2019-03-26T11:21:02.502Z,98978.60
2019-03-26T11:23:27.273Z,98983.09
2019-03-26T11:26:00.689Z,98981.41
2019-03-26T11:28:33.905Z,98979.82
2019-03-26T11:31:06.660Z,98977.88
2019-03-26T11:33:39.719Z,98981.42
2019-03-26T11:36:13.243Z,98981.03
2019-03-26T11:38:46.473Z,98985.52
2019-03-26T11:41:19.696Z,98983.02
2019-03-26T11:43:52.645Z,98968.66
2019-03-26T11:46:25.707Z,98971.58
2019-03-26T11:48:58.768Z,98967.55
2019-03-26T11:51:32.294Z,98965.37
2019-03-26T11:54:05.943Z,98970.78
2019-03-26T11:56:38.713Z,98969.66
2019-03-26T11:59:11.792Z,98963.52
2019-03-26T12:01:44.566Z,98970.24
2019-03-26T12:04:17.929Z,98963.86
2019-03-26T12:06:50.682Z,98955.92
2019-03-26T12:09:24.173Z,98956.37
2019-03-26T12:11:56.925Z,98958.32
2019-03-26T12:14:31.173Z,98958.31
2019-03-26T12:17:04.768Z,98961.20
2019-03-26T12:19:38.398Z,98959.59
2019-03-26T12:22:11.463Z,98954.78
2019-03-26T12:24:44.340Z,98948.63
2019-03-26T12:27:17.129Z,98954.87
2019-03-26T12:29:51.286Z,98949.30
2019-03-26T12:32:24.538Z,98944.56
2019-03-26T12:34:57.519Z,98942.19
2019-03-26T12:37:30.939Z,98947.95
2019-03-26T12:40:04.385Z,98945.17
2019-03-26T12:42:37.551Z,98947.36
2019-03-26T12:45:11.138Z,98944.63
2019-03-26T12:47:43.987Z,98943.44
2019-03-26T12:50:17.047Z,98940.22
2019-03-26T12:52:51.430Z,98946.80
2019-03-26T12:55:24.492Z,98944.59
2019-03-26T12:57:57.568Z,98946.44
2019-03-26T13:00:36.354Z,98947.47
2019-03-26T13:03:09.547Z,98947.60
2019-03-26T13:05:43.113Z,98938.16
2019-03-26T13:08:17.251Z,98940.72
2019-03-26T13:10:53.712Z,98933.50
2019-03-26T13:13:26.654Z,98933.59
2019-03-26T13:16:00.501Z,98933.77
2019-03-26T13:18:33.566Z,98935.36
2019-03-26T13:21:07.362Z,98933.06
2019-03-26T13:23:40.743Z,98924.07
2019-03-26T13:26:13.846Z,98923.03
2019-03-26T13:28:46.901Z,98924.80
2019-03-26T13:31:19.658Z,98916.55
2019-03-26T13:33:53.834Z,98920.38
2019-03-26T13:36:26.599Z,98914.42
2019-03-26T13:38:59.358Z,98913.00
2019-03-26T13:41:32.839Z,98912.98
2019-03-26T13:44:06.011Z,98906.69
2019-03-26T13:46:39.086Z,98906.84
2019-03-26T13:49:12.597Z,98897.36
2019-03-26T13:51:46.360Z,98900.21
2019-03-26T13:54:19.464Z,98899.97
2019-03-26T13:56:52.540Z,98893.93
2019-03-26T13:59:26.054Z,98899.48
2019-03-26T14:01:59.134Z,98896.40
2019-03-26T14:04:32.321Z,98904.89
2019-03-26T14:07:05.590Z,98901.98
2019-03-26T14:09:39.598Z,98898.81
2019-03-26T14:12:12.669Z,98904.55
2019-03-26T14:14:45.435Z,98903.63
2019-03-26T14:17:18.916Z,98901.36
2019-03-26T14:19:52.140Z,98907.59
2019-03-26T14:22:25.436Z,98919.33
2019-03-26T14:24:58.299Z,98921.23
2019-03-26T14:27:31.553Z,98914.06
2019-03-26T14:30:06.198Z,98905.44
2019-03-26T14:32:40.467Z,98902.79
2019-03-26T14:35:13.825Z,98900.15
2019-03-26T14:37:51.491Z,98909.96
2019-03-26T14:40:23.490Z,98911.79
2019-03-26T14:42:57.284Z,98905.67
2019-03-26T14:45:30.865Z,98912.33
2019-03-26T14:48:04.510Z,98903.12
2019-03-26T14:50:37.727Z,98901.68
2019-03-26T14:53:11.150Z,98901.70
2019-03-26T14:55:44.310Z,98900.22
2019-03-26T14:58:18.104Z,98905.39
2019-03-26T15:00:51.187Z,98909.54
2019-03-26T15:03:23.940Z,98907.45
2019-03-26T15:05:57.161Z,98907.45
2019-03-26T15:08:29.911Z,98904.37
2019-03-26T15:11:08.189Z,98895.90
2019-03-26T15:13:37.558Z,98892.95
2019-03-26T15:16:10.876Z,98895.19
2019-03-26T15:18:43.629Z,98897.45
2019-03-26T15:21:16.696Z,98898.40
2019-03-26T15:23:49.522Z,98909.64
2019-03-26T15:26:22.629Z,98902.29
2019-03-26T15:28:56.289Z,98903.64
2019-03-26T15:31:29.003Z,98900.75
2019-03-26T15:34:01.872Z,98907.97
2019-03-26T15:36:34.945Z,98908.16
2019-03-26T15:39:10.103Z,98904.79
2019-03-26T15:41:43.479Z,98903.67
2019-03-26T15:44:16.539Z,98902.80
2019-03-26T15:46:49.294Z,98907.75
2019-03-26T15:49:22.821Z,98900.72
2019-03-26T15:51:56.211Z,98900.62
2019-03-26T15:54:29.801Z,98897.16
2019-03-26T15:57:03.069Z,98887.16
2019-03-26T15:59:35.818Z,98892.84
2019-03-26T16:02:08.895Z,98892.21
2019-03-26T16:04:41.650Z,98894.72
2019-03-26T16:07:14.872Z,98895.21
2019-03-26T16:09:48.527Z,98899.04
2019-03-26T16:12:22.016Z,98900.81
2019-03-26T16:14:54.768Z,98900.08
2019-03-26T16:17:27.998Z,98903.47
2019-03-26T16:20:01.065Z,98903.78
2019-03-26T16:22:34.320Z,98911.48
2019-03-26T16:25:08.597Z,98909.63
2019-03-26T16:27:42.197Z,98908.02
2019-03-26T16:30:16.067Z,98906.56
2019-03-26T16:32:49.556Z,98915.00
2019-03-26T16:35:22.623Z,98908.69
2019-03-26T16:37:56.128Z,98905.92
2019-03-26T16:40:29.440Z,98912.32
2019-03-26T16:43:02.525Z,98912.48
2019-03-26T16:45:36.067Z,98919.86
2019-03-26T16:48:11.584Z,98914.33
2019-03-26T16:50:46.790Z,98917.56
2019-03-26T16:53:19.856Z,98910.79
2019-03-26T16:55:53.102Z,98916.86
2019-03-26T16:58:26.157Z,98916.23
2019-03-26T17:00:59.230Z,98922.66
2019-03-26T17:03:31.968Z,98926.00
2019-03-26T17:06:05.581Z,98928.41
2019-03-26T17:08:39.409Z,98926.08
2019-03-26T17:11:12.628Z,98928.82
2019-03-26T17:13:45.679Z,98931.86
2019-03-26T17:16:19.471Z,98927.75
2019-03-26T17:18:52.757Z,98927.09
2019-03-26T17:21:25.525Z,98930.67
2019-03-26T17:23:58.592Z,98929.61
2019-03-26T17:26:31.352Z,98929.34
2019-03-26T17:29:04.743Z,98933.01
2019-03-26T17:31:38.644Z,98931.16
2019-03-26T17:34:12.614Z,98929.36
2019-03-26T17:36:45.686Z,98931.53
2019-03-26T17:39:18.429Z,98932.55
2019-03-26T17:41:52.060Z,98941.52
2019-03-26T17:44:25.132Z,98937.75
2019-03-26T17:46:58.363Z,98932.72
2019-03-26T17:49:31.112Z,98937.73
2019-03-26T17:52:04.684Z,98936.28
2019-03-26T17:54:37.758Z,98938.53
2019-03-26T17:57:10.977Z,98950.13
2019-03-26T17:59:44.082Z,98946.27
2019-03-26T18:02:18.288Z,98948.20
2019-03-26T18:04:51.734Z,98947.23
2019-03-26T18:07:25.238Z,98947.79
2019-03-26T18:09:58.426Z,98947.22
2019-03-26T18:12:31.464Z,98952.19
2019-03-26T18:15:04.938Z,98954.16
2019-03-26T18:17:38.780Z,98957.36
2019-03-26T18:20:11.900Z,98955.17
2019-03-26T18:22:45.454Z,98952.92
2019-03-26T18:25:18.516Z,98956.63
2019-03-26T18:27:51.742Z,98955.39
2019-03-26T18:30:25.514Z,98956.70
2019-03-26T18:32:58.595Z,98957.70
2019-03-26T18:35:32.305Z,98955.72
2019-03-26T18:38:05.398Z,98957.66
2019-03-26T18:40:39.662Z,98954.13
2019-03-26T18:43:13.163Z,98955.23
2019-03-26T18:45:47.529Z,98958.52
2019-03-26T18:48:20.748Z,98964.50
2019-03-26T18:50:53.793Z,98965.52
2019-03-26T18:53:26.545Z,98972.29
2019-03-26T18:56:00.390Z,98972.44
2019-03-26T18:58:34.528Z,98971.45
2019-03-26T19:01:07.998Z,98973.42
2019-03-26T19:03:42.473Z,98971.90
2019-03-26T19:06:15.996Z,98971.59
2019-03-26T19:08:50.138Z,98969.98
2019-03-26T19:11:23.260Z,98974.38
2019-03-26T19:13:56.618Z,98970.28
2019-03-26T19:16:30.162Z,98982.19
2019-03-26T19:19:02.912Z,98975.05
2019-03-26T19:21:36.556Z,98976.72
2019-03-26T19:24:09.930Z,98974.53
2019-03-26T19:26:44.114Z,98973.08
2019-03-26T19:29:17.185Z,98974.69
2019-03-26T19:31:50.863Z,98974.39
2019-03-26T19:34:24.569Z,98968.80
2019-03-26T19:36:58.557Z,98968.97
2019-03-26T19:39:31.629Z,98976.73
2019-03-26T19:42:04.711Z,98973.75
2019-03-26T19:44:37.891Z,98973.25
2019-03-26T19:47:11.065Z,98971.97
2019-03-26T19:49:43.817Z,98970.61
2019-03-26T19:52:16.890Z,98971.22
2019-03-26T19:54:50.129Z,98975.78
2019-03-26T19:57:23.607Z,98976.34
2019-03-26T19:59:58.339Z,98980.02
2019-03-26T20:02:32.201Z,98979.28
2019-03-26T20:05:05.208Z,98979.28
2019-03-26T20:07:38.792Z,98977.20
2019-03-26T20:10:14.435Z,98979.77
2019-03-26T20:12:51.190Z,98982.19
2019-03-26T20:15:25.128Z,98981.49
2019-03-26T20:17:58.199Z,98977.61
2019-03-26T20:20:31.382Z,98977.50
2019-03-26T20:23:04.566Z,98978.41
2019-03-26T20:25:38.711Z,98986.87
2019-03-26T20:28:12.265Z,98985.61
2019-03-26T20:30:46.007Z,98989.91
2019-03-26T20:33:19.230Z,98985.75
2019-03-26T20:35:52.917Z,98987.48
2019-03-26T20:38:26.676Z,98987.59
2019-03-26T20:41:00.058Z,98993.05
2019-03-26T20:43:37.395Z,98996.14
2019-03-26T20:46:09.044Z,98998.58
2019-03-26T20:48:42.276Z,99002.69
2019-03-26T20:51:15.514Z,99005.09
2019-03-26T20:53:49.191Z,99009.64
2019-03-26T20:56:22.408Z,99010.58
2019-03-26T20:58:55.136Z,99014.02
2019-03-26T21:01:28.531Z,99019.92
2019-03-26T21:04:02.476Z,99018.33
2019-03-26T21:06:36.118Z,99016.27
2019-03-26T21:09:10.527Z,99013.09
2019-03-26T21:11:44.020Z,99016.84
2019-03-26T21:14:17.246Z,99017.98
2019-03-26T21:16:50.796Z,99022.97
2019-03-26T21:19:24.430Z,99029.59
2019-03-26T21:21:57.304Z,99038.06
2019-03-26T21:24:31.004Z,99053.47
2019-03-26T21:27:04.372Z,99054.16
2019-03-26T21:29:37.599Z,99044.58
2019-03-26T21:32:10.868Z,99053.67
2019-03-26T21:34:45.055Z,99057.47
2019-03-26T21:37:18.906Z,99053.42
2019-03-26T21:39:53.015Z,99054.11
2019-03-26T21:42:27.618Z,99055.34
2019-03-26T21:45:01.954Z,99045.58
2019-03-26T21:47:35.324Z,99048.52
2019-03-26T21:50:09.538Z,99040.74
2019-03-26T21:52:42.766Z,99045.66
2019-03-26T21:55:15.724Z,99039.09
2019-03-26T21:57:49.879Z,99042.51
2019-03-26T22:00:23.592Z,99031.48
2019-03-26T22:02:56.837Z,99040.22
2019-03-26T22:05:29.594Z,99031.92
2019-03-26T22:08:02.354Z,99033.80
2019-03-26T22:10:35.599Z,99029.62
2019-03-26T22:13:09.212Z,99031.91
2019-03-26T22:15:42.675Z,99029.48
2019-03-26T22:18:15.934Z,99032.03
2019-03-26T22:20:50.228Z,99032.66
2019-03-26T22:23:22.998Z,99032.56
2019-03-26T22:25:56.585Z,99031.55
2019-03-26T22:28:29.652Z,99031.66
2019-03-26T22:31:02.387Z,99034.09
2019-03-26T22:33:35.472Z,99034.22
2019-03-26T22:36:09.511Z,99036.36
2019-03-26T22:38:42.580Z,99036.06
2019-03-26T22:41:15.798Z,99037.98
2019-03-26T22:43:48.547Z,99038.98
2019-03-26T22:46:21.728Z,99047.09
2019-03-26T22:48:54.488Z,99050.13
2019-03-26T22:51:27.715Z,99050.27
2019-03-26T22:54:00.476Z,99046.89
2019-03-26T22:56:33.236Z,99055.11
2019-03-26T22:59:06.437Z,99059.83
2019-03-26T23:01:39.708Z,99066.59
2019-03-26T23:04:12.632Z,99072.47
2019-03-26T23:06:46.156Z,99071.08
2019-03-26T23:09:18.937Z,99072.91
2019-03-26T23:11:51.958Z,99075.20
2019-03-26T23:14:25.015Z,99076.66
2019-03-26T23:16:58.867Z,99076.81
2019-03-26T23:19:31.640Z,99078.08
2019-03-26T23:22:04.812Z,99078.84
2019-03-26T23:24:38.388Z,99087.75
2019-03-26T23:27:11.130Z,99088.84
2019-03-26T23:29:43.895Z,99087.05
2019-03-26T23:32:17.059Z,99080.42
2019-03-26T23:34:50.121Z,99081.23
2019-03-26T23:37:23.295Z,99084.25
2019-03-26T23:39:56.067Z,99082.05
2019-03-26T23:42:29.368Z,99078.48
2019-03-26T23:45:02.150Z,99081.14
2019-03-26T23:47:35.378Z,99084.41
2019-03-26T23:50:11.654Z,99089.56
2019-03-26T23:52:44.435Z,99085.30
2019-03-26T23:55:17.301Z,99081.09
2019-03-26T23:57:50.046Z,99077.89
